createdAt,value
2017-10-13T00:02:08.492Z,4.60
2017-10-13T00:07:12.788Z,5.37
2017-10-13T00:12:17.132Z,4.83
2017-10-13T00:17:20.184Z,5.60
2017-10-13T00:22:23.746Z,5.70
2017-10-13T00:27:28.149Z,5.13
2017-10-13T00:32:31.160Z,5.40
2017-10-13T00:37:36.264Z,5.27
2017-10-13T00:42:39.177Z,5.33
2017-10-13T00:47:43.389Z,5.20
2017-10-13T00:52:46.358Z,4.17
2017-10-13T00:57:49.604Z,4.30
2017-10-13T01:02:55.584Z,4.40
2017-10-13T01:13:05.346Z,4.50
2017-10-13T01:18:08.744Z,6.17
2017-10-13T01:23:12.943Z,4.90
2017-10-13T01:28:18.986Z,5.53
2017-10-13T01:33:25.067Z,4.50
2017-10-13T01:38:28.110Z,4.87
2017-10-13T01:43:31.574Z,4.87
2017-10-13T01:48:34.860Z,5.10
2017-10-13T01:53:39.178Z,6.03
2017-10-13T01:58:44.194Z,5.10
2017-10-13T02:03:47.101Z,5.07
2017-10-13T02:08:50.537Z,5.70
2017-10-13T02:13:53.562Z,5.27
2017-10-13T02:18:57.250Z,6.77
2017-10-13T02:24:00.676Z,7.17
2017-10-13T02:29:04.057Z,6.00
2017-10-13T02:34:07.353Z,6.90
2017-10-13T02:39:10.749Z,6.70
2017-10-13T02:44:14.979Z,7.50
2017-10-13T02:49:18.285Z,6.20
2017-10-13T02:54:21.496Z,7.57
2017-10-13T02:59:24.243Z,7.53
2017-10-13T03:04:27.308Z,6.30
2017-10-13T03:09:30.308Z,7.30
2017-10-13T03:14:34.363Z,6.60
2017-10-13T03:19:38.595Z,6.90
2017-10-13T03:29:49.642Z,8.00
2017-10-13T03:34:53.231Z,8.57
2017-10-13T03:39:56.145Z,7.47
2017-10-13T03:45:00.386Z,7.67
2017-10-13T03:50:03.182Z,8.10
2017-10-13T03:55:06.313Z,7.03
2017-10-13T04:00:09.785Z,7.20
2017-10-13T04:05:13.373Z,6.80
2017-10-13T04:10:16.667Z,6.97
2017-10-13T04:15:19.587Z,8.20
2017-10-13T04:20:23.102Z,7.27
2017-10-13T04:25:26.559Z,6.53
2017-10-13T04:30:29.915Z,6.13
2017-10-13T04:35:33.360Z,6.47
2017-10-13T04:40:36.255Z,6.43
2017-10-13T04:45:40.567Z,6.70
2017-10-13T04:50:44.816Z,5.97
2017-10-13T04:55:49.120Z,7.33
2017-10-13T05:00:52.770Z,6.80
2017-10-13T05:05:58.841Z,6.83
2017-10-13T05:11:03.167Z,6.97
2017-10-13T05:16:07.364Z,6.60
2017-10-13T05:21:11.579Z,7.20
2017-10-13T05:26:17.761Z,10.03
2017-10-13T05:31:21.080Z,7.73
2017-10-13T05:36:24.384Z,8.00
2017-10-13T05:41:27.296Z,8.70
2017-10-13T05:46:31.446Z,8.20
2017-10-13T05:51:34.269Z,8.93
2017-10-13T05:56:37.164Z,8.13
2017-10-13T06:01:39.788Z,9.33
2017-10-13T06:06:46.825Z,12.50
2017-10-13T06:11:50.158Z,9.33
2017-10-13T06:16:53.081Z,10.80
2017-10-13T06:21:57.211Z,12.27
2017-10-13T06:26:59.841Z,12.17
2017-10-13T06:37:10.852Z,11.87
2017-10-13T06:42:15.187Z,12.47
2017-10-13T06:47:18.849Z,12.20
2017-10-13T06:52:23.006Z,11.23
2017-10-13T06:57:26.366Z,12.03
2017-10-13T07:02:29.707Z,12.77
2017-10-13T07:07:32.336Z,16.27
2017-10-13T07:12:35.779Z,14.67
2017-10-13T07:17:39.903Z,15.17
2017-10-13T07:22:43.162Z,15.00
2017-10-13T07:27:45.827Z,14.60
2017-10-13T07:32:50.053Z,13.13
2017-10-13T07:37:52.901Z,13.10
2017-10-13T07:42:56.220Z,12.93
2017-10-13T07:48:00.540Z,12.93
2017-10-13T07:53:03.852Z,11.37
2017-10-13T07:58:07.750Z,11.70
2017-10-13T08:03:11.078Z,12.03
2017-10-13T08:08:15.380Z,11.20
2017-10-13T08:13:18.302Z,10.23
2017-10-13T08:18:22.512Z,9.43
2017-10-13T08:23:26.681Z,8.90
2017-10-13T08:28:30.784Z,8.10
2017-10-13T08:33:34.940Z,8.80
2017-10-13T08:38:38.202Z,7.53
2017-10-13T08:43:41.468Z,6.63
2017-10-13T08:48:44.864Z,7.70
2017-10-13T08:53:47.824Z,7.23
2017-10-13T08:58:52.052Z,6.20
2017-10-13T09:09:01.508Z,6.13
2017-10-13T09:14:05.751Z,7.73
2017-10-13T09:19:08.656Z,7.30
2017-10-13T09:24:11.976Z,7.73
2017-10-13T09:29:15.323Z,6.73
2017-10-13T09:34:17.974Z,4.57
2017-10-13T09:39:20.765Z,3.37
2017-10-13T09:44:23.693Z,3.70
2017-10-13T09:49:26.523Z,2.83
2017-10-13T09:54:29.202Z,2.80
2017-10-13T09:59:33.349Z,2.77
2017-10-13T10:04:36.188Z,4.27
2017-10-13T10:09:39.013Z,4.40
2017-10-13T10:14:41.635Z,5.10
2017-10-13T10:19:44.541Z,4.77
2017-10-13T10:24:48.624Z,4.27
2017-10-13T10:29:51.419Z,4.63
2017-10-13T10:34:56.572Z,4.43
2017-10-13T10:39:59.885Z,4.00
2017-10-13T10:45:04.035Z,3.10
2017-10-13T10:50:06.888Z,2.70
2017-10-13T10:55:11.883Z,3.60
2017-10-13T11:00:15.265Z,6.33
2017-10-13T11:05:18.539Z,6.53
2017-10-13T11:10:21.837Z,7.17
2017-10-13T11:15:24.742Z,4.63
2017-10-13T11:20:27.683Z,5.23
2017-10-13T11:25:30.988Z,5.00
2017-10-13T11:30:37.151Z,5.03
2017-10-13T11:35:39.771Z,2.60
2017-10-13T11:40:43.919Z,2.43
2017-10-13T11:45:47.268Z,3.43
2017-10-13T11:50:50.640Z,3.00
2017-10-13T11:55:54.088Z,2.53
2017-10-13T12:00:57.521Z,2.50
2017-10-13T12:06:00.362Z,2.07
2017-10-13T12:11:04.496Z,2.10
2017-10-13T12:16:07.822Z,2.03
2017-10-13T12:21:11.204Z,1.90
2017-10-13T12:26:14.565Z,2.43
2017-10-13T12:31:17.855Z,2.00
2017-10-13T12:36:20.789Z,2.17
2017-10-13T12:41:26.718Z,1.63
2017-10-13T12:46:30.014Z,1.53
2017-10-13T12:51:32.676Z,1.93
2017-10-13T12:56:36.224Z,1.53
2017-10-13T13:01:39.515Z,1.43
2017-10-13T13:06:43.168Z,1.10
2017-10-13T13:11:46.056Z,1.50
2017-10-13T13:16:49.343Z,1.37
2017-10-13T13:21:53.566Z,1.57
2017-10-13T13:26:56.151Z,2.03
2017-10-13T13:32:00.398Z,4.00
2017-10-13T13:37:04.681Z,2.17
2017-10-13T13:42:08.090Z,1.43
2017-10-13T13:47:11.584Z,1.63
2017-10-13T13:52:15.533Z,1.87
2017-10-13T13:57:18.864Z,1.63
2017-10-13T14:02:22.184Z,1.70
2017-10-13T14:07:25.602Z,2.40
2017-10-13T14:12:29.838Z,1.53
2017-10-13T14:17:32.717Z,1.60
2017-10-13T14:22:36.679Z,2.27
2017-10-13T14:27:40.005Z,1.43
2017-10-13T14:32:43.281Z,1.80
2017-10-13T14:37:46.571Z,1.57
2017-10-13T14:42:50.818Z,1.57
2017-10-13T14:47:56.744Z,1.70
2017-10-13T14:53:00.875Z,1.70
2017-10-13T14:58:03.756Z,2.70
2017-10-13T15:03:09.767Z,1.50
2017-10-13T15:08:13.083Z,1.70
2017-10-13T15:13:16.320Z,1.63
2017-10-13T15:18:19.720Z,2.50
2017-10-13T15:23:22.371Z,2.00
2017-10-13T15:28:34.006Z,1.97
2017-10-13T15:33:42.876Z,2.00
2017-10-13T15:38:52.069Z,1.40
2017-10-13T15:44:00.664Z,1.50
2017-10-13T15:54:30.198Z,1.50
2017-10-13T15:59:32.800Z,1.87
2017-10-13T16:04:35.379Z,1.87
2017-10-13T16:09:37.938Z,2.27
2017-10-13T16:14:40.502Z,1.70
2017-10-13T16:19:43.835Z,1.50
2017-10-13T16:24:46.398Z,2.00
2017-10-13T16:29:48.963Z,1.80
2017-10-13T16:34:52.124Z,2.10
2017-10-13T16:39:54.663Z,2.43
2017-10-13T16:44:57.268Z,2.90
2017-10-13T16:49:59.867Z,3.80
2017-10-13T16:55:02.456Z,3.23
2017-10-13T17:00:05.029Z,3.13
2017-10-13T17:05:07.612Z,3.47
2017-10-13T17:10:10.160Z,3.20
2017-10-13T17:15:12.733Z,4.83
2017-10-13T17:20:15.314Z,3.30
2017-10-13T17:25:17.917Z,2.97
2017-10-13T17:30:20.681Z,3.33
2017-10-13T17:35:23.237Z,3.87
2017-10-13T17:40:25.812Z,2.40
2017-10-13T17:45:28.419Z,3.50
2017-10-13T17:50:30.974Z,3.50
2017-10-13T17:55:33.546Z,2.43
2017-10-13T18:00:36.197Z,9.73
2017-10-13T18:05:38.754Z,5.13
2017-10-13T18:10:41.724Z,3.07
2017-10-13T18:15:44.320Z,2.70
2017-10-13T18:20:46.915Z,3.60
2017-10-13T18:25:49.467Z,3.40
2017-10-13T18:30:52.404Z,3.27
2017-10-13T18:35:55.780Z,3.43
2017-10-13T18:40:58.383Z,3.43
2017-10-13T18:46:01.099Z,2.87
2017-10-13T18:51:03.801Z,2.50
2017-10-13T18:56:06.424Z,3.27
2017-10-13T19:01:09.026Z,3.30
2017-10-13T19:06:12.377Z,4.20
2017-10-13T19:11:15.018Z,4.40
2017-10-13T19:16:17.647Z,3.20
2017-10-13T19:21:20.220Z,3.87
2017-10-13T19:26:22.857Z,5.10
2017-10-13T19:31:25.439Z,4.80
2017-10-13T19:36:28.764Z,3.80
2017-10-13T19:41:31.344Z,3.53
2017-10-13T19:46:33.918Z,3.33
2017-10-13T19:51:36.494Z,3.73
2017-10-13T19:56:39.063Z,4.23
2017-10-13T20:01:41.644Z,3.70
2017-10-13T20:06:44.210Z,3.43
2017-10-13T20:11:46.824Z,3.77
2017-10-13T20:16:49.401Z,4.00
2017-10-13T20:21:51.961Z,3.70
2017-10-13T20:26:54.536Z,4.20
2017-10-13T20:31:57.121Z,3.47
2017-10-13T20:36:59.714Z,5.70
2017-10-13T20:42:02.277Z,3.73
2017-10-13T20:47:04.844Z,4.00
2017-10-13T20:52:07.434Z,3.90
2017-10-13T20:57:10.773Z,3.50
2017-10-13T21:02:13.330Z,3.87
2017-10-13T21:07:15.903Z,4.57
2017-10-13T21:12:18.457Z,4.70
2017-10-13T21:17:21.028Z,4.40
2017-10-13T21:22:23.595Z,5.07
2017-10-13T21:27:26.147Z,4.20
2017-10-13T21:32:28.727Z,4.83
2017-10-13T21:37:31.291Z,4.60
2017-10-13T21:42:33.881Z,4.80
2017-10-13T21:47:36.444Z,4.20
2017-10-13T21:52:39.022Z,3.87
2017-10-13T21:57:41.573Z,3.80
2017-10-13T22:02:44.150Z,4.83
2017-10-13T22:07:46.707Z,3.93
2017-10-13T22:12:49.307Z,4.03
2017-10-13T22:17:51.859Z,3.80
2017-10-13T22:22:54.444Z,3.47
2017-10-13T22:27:57.782Z,4.00
2017-10-13T22:33:00.323Z,3.70
2017-10-13T22:38:02.887Z,4.53
2017-10-13T22:43:05.431Z,3.40
2017-10-13T22:48:07.986Z,3.90
2017-10-13T22:53:10.567Z,4.30
2017-10-13T22:58:13.164Z,4.03
2017-10-13T23:03:15.728Z,3.63
2017-10-13T23:08:18.292Z,4.90
2017-10-13T23:13:20.866Z,4.30
2017-10-13T23:18:23.422Z,3.63
2017-10-13T23:23:25.967Z,4.30
2017-10-13T23:28:28.538Z,3.37
2017-10-13T23:33:31.091Z,4.33
2017-10-13T23:38:33.666Z,4.43
2017-10-13T23:43:36.224Z,4.10
2017-10-13T23:48:38.788Z,4.10
2017-10-13T23:53:41.350Z,4.57
2017-10-13T23:58:43.899Z,4.10
